createdAt,value
2023-04-01T00:03:45.593Z,5.10
2023-04-01T00:08:47.665Z,5.88
2023-04-01T00:13:49.575Z,5.30
2023-04-01T00:18:51.939Z,5.05
2023-04-01T00:23:53.569Z,5.18
2023-04-01T00:28:55.195Z,5.63
2023-04-01T00:33:57.471Z,5.03
2023-04-01T00:39:00.217Z,4.68
2023-04-01T00:44:24.157Z,4.22
2023-04-01T00:49:49.501Z,3.65
2023-04-01T00:54:57.540Z,3.60
2023-04-01T01:00:00.322Z,3.45
2023-04-01T01:05:02.476Z,4.45
2023-04-01T01:10:41.097Z,6.50
2023-04-01T01:15:48.655Z,4.82
2023-04-01T01:20:56.196Z,5.88
2023-04-01T01:26:13.345Z,4.22
2023-04-01T01:31:29.074Z,3.83
2023-04-01T01:36:36.867Z,4.05
2023-04-01T01:41:45.134Z,4.50
2023-04-01T01:46:48.672Z,3.78
2023-04-01T01:51:50.537Z,4.28
2023-04-01T01:57:16.759Z,5.28
2023-04-01T02:02:23.857Z,4.30
2023-04-01T02:07:32.345Z,5.70
2023-04-01T02:12:38.357Z,6.40
2023-04-01T02:17:46.370Z,6.85
2023-04-01T02:22:58.836Z,7.47
2023-04-01T02:28:01.434Z,7.43
2023-04-01T02:33:05.048Z,8.27
2023-04-01T02:38:07.360Z,8.98
2023-04-01T02:43:09.811Z,8.38
2023-04-01T02:48:11.596Z,8.93
2023-04-01T02:53:13.321Z,11.52
2023-04-01T02:58:14.963Z,11.55
2023-04-01T03:03:16.669Z,11.35
2023-04-01T03:08:18.417Z,12.27
2023-04-01T03:13:20.135Z,12.50
2023-04-01T03:18:21.961Z,14.88
2023-04-01T03:23:25.381Z,14.52
2023-04-01T03:28:27.041Z,13.95
2023-04-01T03:33:28.899Z,13.20
2023-04-01T03:38:30.836Z,12.65
2023-04-01T03:43:33.360Z,10.18
2023-04-01T03:48:35.508Z,13.45
2023-04-01T03:53:37.286Z,14.00
2023-04-01T03:58:41.067Z,11.95
2023-04-01T04:03:45.269Z,12.68
2023-04-01T04:08:47.488Z,11.40
2023-04-01T04:13:49.816Z,14.70
2023-04-01T04:18:52.476Z,15.77
2023-04-01T04:23:54.111Z,14.32
2023-04-01T04:28:56.655Z,12.55
2023-04-01T04:34:01.369Z,11.38
2023-04-01T04:39:04.227Z,9.57
2023-04-01T04:44:07.938Z,7.43
2023-04-01T04:49:09.779Z,9.90
2023-04-01T04:54:11.452Z,9.63
2023-04-01T04:59:29.108Z,10.90
2023-04-01T05:04:39.295Z,12.57
2023-04-01T05:09:46.669Z,8.85
2023-04-01T05:14:48.702Z,7.55
2023-04-01T05:19:50.484Z,6.97
2023-04-01T05:24:52.221Z,6.55
2023-04-01T05:29:53.997Z,7.35
2023-04-01T05:35:28.004Z,7.03
2023-04-01T05:40:30.977Z,6.15
2023-04-01T05:45:32.849Z,5.50
2023-04-01T05:50:49.913Z,5.35
2023-04-01T05:55:51.826Z,5.90
2023-04-01T06:01:09.676Z,6.60
2023-04-01T06:06:24.582Z,7.97
2023-04-01T06:11:45.626Z,8.80
2023-04-01T06:17:13.538Z,7.05
2023-04-01T06:22:24.733Z,9.15
2023-04-01T06:27:50.841Z,9.90
2023-04-01T06:33:22.040Z,10.43
2023-04-01T06:38:48.474Z,11.90
2023-04-01T06:44:20.003Z,13.38
2023-04-01T06:50:25.251Z,11.65
2023-04-01T06:56:08.655Z,9.43
2023-04-01T07:01:39.212Z,11.80
2023-04-01T07:06:44.972Z,10.45
2023-04-01T07:11:46.887Z,10.80
2023-04-01T07:17:21.926Z,10.85
2023-04-01T07:22:39.251Z,8.88
2023-04-01T07:27:57.815Z,10.70
2023-04-01T07:32:59.469Z,11.65
2023-04-01T07:38:34.746Z,10.00
2023-04-01T07:43:50.358Z,9.68
2023-04-01T07:49:20.189Z,12.00
2023-04-01T07:54:33.992Z,12.30
2023-04-01T07:59:52.989Z,10.48
2023-04-01T08:05:20.491Z,8.90
2023-04-01T08:11:01.423Z,11.00
2023-04-01T08:16:29.090Z,10.80
2023-04-01T08:21:42.541Z,10.43
2023-04-01T08:26:50.745Z,9.55
2023-04-01T08:31:58.205Z,11.40
2023-04-01T08:37:06.465Z,10.38
2023-04-01T08:42:27.076Z,10.25
2023-04-01T08:47:53.896Z,10.52
2023-04-01T08:53:27.970Z,9.63
2023-04-01T08:58:58.565Z,8.98
2023-04-01T09:04:25.059Z,10.38
2023-04-01T09:09:45.969Z,9.95
2023-04-01T09:15:17.077Z,11.23
2023-04-01T09:20:47.118Z,11.85
2023-04-01T09:26:31.871Z,12.70
2023-04-01T09:31:44.699Z,12.35
2023-04-01T09:37:19.843Z,13.38
2023-04-01T09:42:45.149Z,13.80
2023-04-01T09:48:23.035Z,13.05
2023-04-01T09:53:57.599Z,12.65
2023-04-01T09:59:25.750Z,13.82
2023-04-01T10:05:19.708Z,13.48
2023-04-01T10:10:49.693Z,14.40
2023-04-01T10:16:26.337Z,13.10
2023-04-01T10:22:11.466Z,14.88
2023-04-01T10:27:56.802Z,16.77
2023-04-01T10:33:29.704Z,16.52
2023-04-01T10:39:14.136Z,17.35
2023-04-01T10:44:43.821Z,16.08
2023-04-01T10:50:25.145Z,15.32
2023-04-01T10:56:07.217Z,16.08
2023-04-01T11:01:36.651Z,14.30
2023-04-01T11:07:23.530Z,14.73
2023-04-01T11:12:37.327Z,13.88
2023-04-01T11:18:13.115Z,12.05
2023-04-01T11:23:33.862Z,13.70
2023-04-01T11:28:48.302Z,12.63
2023-04-01T11:34:22.215Z,11.82
2023-04-01T11:39:32.310Z,9.57
2023-04-01T11:44:44.131Z,11.80
2023-04-01T11:50:13.402Z,11.73
2023-04-01T11:55:44.490Z,11.32
2023-04-01T12:01:13.469Z,10.68
2023-04-01T12:06:34.780Z,10.48
2023-04-01T12:11:42.785Z,8.80
2023-04-01T12:17:10.757Z,9.35
2023-04-01T12:22:21.455Z,9.00
2023-04-01T12:28:00.870Z,6.95
2023-04-01T12:33:44.391Z,8.00
2023-04-01T12:39:00.682Z,8.82
2023-04-01T12:44:17.720Z,7.45
2023-04-01T12:49:52.320Z,7.22
2023-04-01T12:55:21.226Z,7.05
2023-04-01T13:00:42.366Z,6.85
2023-04-01T13:06:15.654Z,7.30
2023-04-01T13:11:28.685Z,6.32
2023-04-01T13:16:40.411Z,6.55
2023-04-01T13:22:15.182Z,7.50
2023-04-01T13:27:50.926Z,6.60
2023-04-01T13:33:09.512Z,4.43
2023-04-01T13:38:35.337Z,6.03
2023-04-01T13:43:46.337Z,5.72
2023-04-01T13:49:00.987Z,5.78
2023-04-01T13:54:39.187Z,5.63
2023-04-01T14:00:14.659Z,4.75
2023-04-01T14:05:43.276Z,4.40
2023-04-01T14:11:08.264Z,5.10
2023-04-01T14:16:45.501Z,4.00
2023-04-01T14:22:21.573Z,3.03
2023-04-01T14:27:29.491Z,3.65
2023-04-01T14:32:43.168Z,4.07
2023-04-01T14:37:57.072Z,4.30
2023-04-01T14:43:10.855Z,3.95
2023-04-01T14:48:33.233Z,4.68
2023-04-01T14:53:42.726Z,3.00
2023-04-01T14:58:59.290Z,4.10
2023-04-01T15:04:37.919Z,3.70
2023-04-01T15:09:44.316Z,4.43
2023-04-01T15:14:55.649Z,3.20
2023-04-01T15:20:16.051Z,6.78
2023-04-01T15:25:58.287Z,3.90
2023-04-01T15:31:20.204Z,4.10
2023-04-01T15:36:45.173Z,4.35
2023-04-01T15:42:02.534Z,3.55
2023-04-01T15:47:37.940Z,3.42
2023-04-01T15:52:42.540Z,3.42
2023-04-01T15:57:52.788Z,3.97
2023-04-01T16:03:11.140Z,3.47
2023-04-01T16:08:42.863Z,3.58
2023-04-01T16:14:08.176Z,3.33
2023-04-01T16:19:28.060Z,2.97
2023-04-01T16:24:46.777Z,3.38
2023-04-01T16:30:04.161Z,3.42
2023-04-01T16:35:41.342Z,3.65
2023-04-01T16:40:49.173Z,6.75
2023-04-01T16:46:16.390Z,4.45
2023-04-01T16:51:20.116Z,5.55
2023-04-01T16:56:24.772Z,3.17
2023-04-01T17:01:42.749Z,5.38
2023-04-01T17:06:47.394Z,2.83
2023-04-01T17:12:02.792Z,5.25
2023-04-01T17:17:43.574Z,4.35
2023-04-01T17:22:54.183Z,3.78
2023-04-01T17:28:10.375Z,3.40
2023-04-01T17:33:44.006Z,3.53
2023-04-01T17:39:02.633Z,4.40
2023-04-01T17:44:13.337Z,1.88
2023-04-01T17:49:27.228Z,14.57
2023-04-01T17:54:51.110Z,4.20
2023-04-01T18:00:20.819Z,4.30
2023-04-01T18:10:52.944Z,7.22
2023-04-01T18:16:36.327Z,2.80
2023-04-01T18:21:48.450Z,5.32
2023-04-01T18:27:12.446Z,9.95
2023-04-01T18:32:22.990Z,24.85
2023-04-01T18:37:55.792Z,7.32
2023-04-01T18:43:19.517Z,4.00
2023-04-01T18:48:23.910Z,5.20
2023-04-01T18:53:36.104Z,3.92
2023-04-01T18:58:51.239Z,3.75
2023-04-01T19:04:14.008Z,3.28
2023-04-01T19:09:24.095Z,4.00
2023-04-01T19:15:00.466Z,3.90
2023-04-01T19:20:26.924Z,3.83
2023-04-01T19:25:40.080Z,3.97
2023-04-01T19:30:54.836Z,4.93
2023-04-01T19:36:18.101Z,6.22
2023-04-01T19:41:42.054Z,5.55
2023-04-01T19:46:50.267Z,4.22
2023-04-01T19:52:30.005Z,4.97
2023-04-01T19:57:46.323Z,4.97
2023-04-01T20:03:04.441Z,4.60
2023-04-01T20:08:56.942Z,3.78
2023-04-01T20:14:29.132Z,5.15
2023-04-01T20:19:53.530Z,5.97
2023-04-01T20:25:01.593Z,5.57
2023-04-01T20:30:37.332Z,4.75
2023-04-01T20:35:45.024Z,5.00
2023-04-01T20:40:52.052Z,5.65
2023-04-01T20:46:00.190Z,5.20
2023-04-01T20:51:18.480Z,4.55
2023-04-01T20:56:34.154Z,5.68
2023-04-01T21:02:03.140Z,4.72
2023-04-01T21:07:43.695Z,5.80
2023-04-01T21:13:03.209Z,5.18
2023-04-01T21:18:12.574Z,4.25
2023-04-01T21:23:20.586Z,5.20
2023-04-01T21:28:35.465Z,4.88
2023-04-01T21:34:03.514Z,5.10
2023-04-01T21:39:37.751Z,5.60
2023-04-01T21:45:00.969Z,6.38
2023-04-01T21:50:29.139Z,6.10
2023-04-01T21:56:01.273Z,5.88
2023-04-01T22:01:11.012Z,6.30
2023-04-01T22:06:25.965Z,5.88
2023-04-01T22:12:02.425Z,4.10
2023-04-01T22:17:18.106Z,6.28
2023-04-01T22:22:41.112Z,6.53
2023-04-01T22:27:50.364Z,5.65
2023-04-01T22:33:07.328Z,6.37
2023-04-01T22:38:33.812Z,5.70
2023-04-01T22:43:40.679Z,5.43
2023-04-01T22:48:54.679Z,6.05
2023-04-01T22:54:12.539Z,6.53
2023-04-01T22:59:25.786Z,6.00
2023-04-01T23:04:33.274Z,5.90
2023-04-01T23:09:38.244Z,5.95
2023-04-01T23:14:57.741Z,6.30
2023-04-01T23:20:31.349Z,6.03
2023-04-01T23:26:17.587Z,5.28
2023-04-01T23:31:21.980Z,5.32
2023-04-01T23:36:24.126Z,6.07
2023-04-01T23:41:31.686Z,4.13
2023-04-01T23:46:35.917Z,6.38
2023-04-01T23:51:40.817Z,5.78
2023-04-01T23:56:46.497Z,4.90
